Startpagina
METAR-TAF:

METAR-TAF

Vliegvelden :

Karachi, Pakistan

breedte: 24-54N, lengte: 067-08E, hoogte: 21 m

Actueel weer

Dit bericht is 41 minuten geleden gemaakt, om 03:25 UTC
Wind 6 kt uit het westzuidwesten
Temperatuur 28°C
Vochtigheid 74%
Druk 1014 hPa
Zicht: 4000 m
rook

METAR: OPKC 240325Z 25006KT 4000 FU NSC 28/23 Q1014 NOSIG

Tijdstip: 09:06 (04:06 UTC)

Verwachting

Dit bericht is 6 uur en het 6 minuten geleden gemaakt, om 22:00 UTC
Verwachting geldig van 24 om 00 UTC tot 25 om 06 UTC
Wind 5 kt uit het westzuidwesten met uitschieters tot 15 kt
Zicht: 6000 m
Tijdelijke
van 24 om 00 UTC tot 24 om 04 UTC
Wind 8 kt uit het westen
Zicht: 2000 m
nevel
Wijzigt naar
van 24 om 14 UTC tot 24 om 16 UTC
Wind 7 kt uit het westzuidwesten
Zicht: 5000 m
Heiigheid
Tijdelijke
van 25 om 01 UTC tot 25 om 05 UTC
Wind 5 kt uit het westen
Zicht: 2000 m
nevel

TAF: OPKC 232200Z 2400/2506 24005G15KT 6000 NSC TEMPO 2400/2404 26008KT 2000 BR NSC BECMG 2414/2416 25007KT 5000 HZ NSC TEMPO 2501/2505 27005KT 2000 BR NSC

Waarnemingen en weersverwachtingen van meer dan 4000 vliegvelden (METAR en TAF).

De beschikbare stations zijn de gele en rode punten op de kaart.

Ga met uw muis naar het station om de naam te zien.

Klik dan om waarnemingen en weersverwachtingen te zien.

kaart wijzigen: klik op de groene knoppen met een zwart kruis om in te zoomen, op de groene knop met een streepje om uit te zoomen of op de groene pijlen voor aangrenzende kaarten.


METAR-TAF: